createdAt,value
2023-03-17T00:00:54.796Z,11.13
2023-03-17T00:01:55.109Z,11.15
2023-03-17T00:02:54.773Z,11.19
2023-03-17T00:03:54.805Z,10.98
2023-03-17T00:04:54.756Z,11.08
2023-03-17T00:05:54.753Z,11.08
2023-03-17T00:06:54.736Z,11.04
2023-03-17T00:07:54.729Z,11.03
2023-03-17T00:08:54.719Z,10.94
2023-03-17T00:09:54.709Z,11.09
2023-03-17T00:10:54.703Z,11.01
2023-03-17T00:11:54.713Z,11.03
2023-03-17T00:12:54.678Z,11.08
2023-03-17T00:13:54.708Z,11.03
2023-03-17T00:14:54.661Z,10.98
2023-03-17T00:15:54.772Z,11.00
2023-03-17T00:16:54.653Z,11.00
2023-03-17T00:17:54.643Z,11.01
2023-03-17T00:18:54.646Z,10.94
2023-03-17T00:19:54.631Z,11.03
2023-03-17T00:20:54.646Z,11.12
2023-03-17T00:21:54.607Z,11.00
2023-03-17T00:22:54.611Z,11.13
2023-03-17T00:23:54.612Z,11.01
2023-03-17T00:24:54.594Z,11.01
2023-03-17T00:25:54.576Z,11.03
2023-03-17T00:26:54.589Z,11.00
2023-03-17T00:27:54.578Z,11.05
2023-03-17T00:28:54.568Z,11.11
2023-03-17T00:29:54.582Z,11.11
2023-03-17T00:30:54.624Z,11.12
2023-03-17T00:31:54.539Z,11.16
2023-03-17T00:32:54.605Z,11.01
2023-03-17T00:33:54.521Z,11.01
2023-03-17T00:34:54.518Z,10.94
2023-03-17T00:35:54.578Z,11.08
2023-03-17T00:36:54.513Z,11.08
2023-03-17T00:37:54.493Z,11.13
2023-03-17T00:38:54.488Z,11.08
2023-03-17T00:39:54.474Z,11.11
2023-03-17T00:40:54.465Z,11.18
2023-03-17T00:41:54.454Z,11.15
2023-03-17T00:42:54.470Z,11.11
2023-03-17T00:43:54.437Z,11.09
2023-03-17T00:44:54.432Z,11.18
2023-03-17T00:45:54.439Z,11.19
2023-03-17T00:46:54.481Z,11.19
2023-03-17T00:47:54.407Z,11.16
2023-03-17T00:48:54.405Z,11.16
2023-03-17T00:49:54.392Z,11.15
2023-03-17T00:50:54.388Z,11.13
2023-03-17T00:51:54.394Z,11.08
2023-03-17T00:52:54.385Z,11.01
2023-03-17T00:53:54.359Z,11.03
2023-03-17T00:54:54.358Z,10.94
2023-03-17T00:55:54.346Z,10.95
2023-03-17T00:56:54.349Z,11.01
2023-03-17T00:57:54.328Z,10.93
2023-03-17T00:58:54.328Z,10.82
2023-03-17T00:59:54.317Z,10.72
2023-03-17T01:00:54.317Z,10.76
2023-03-17T01:01:54.342Z,10.75
2023-03-17T01:02:54.295Z,10.82
2023-03-17T01:03:54.284Z,10.68
2023-03-17T01:05:05.511Z,10.68
2023-03-17T01:05:54.311Z,10.62
2023-03-17T01:06:54.298Z,10.62
2023-03-17T01:07:54.248Z,10.43
2023-03-17T01:08:54.246Z,10.52
2023-03-17T01:09:54.238Z,10.52
2023-03-17T01:10:54.224Z,10.48
2023-03-17T01:11:54.234Z,10.41
2023-03-17T01:12:54.221Z,10.36
2023-03-17T01:13:54.228Z,10.41
2023-03-17T01:14:54.205Z,10.30
2023-03-17T01:15:54.267Z,10.30
2023-03-17T01:16:54.185Z,10.17
2023-03-17T01:17:54.187Z,10.18
2023-03-17T01:18:54.207Z,10.27
2023-03-17T01:19:54.164Z,10.26
2023-03-17T01:20:54.151Z,10.27
2023-03-17T01:21:54.162Z,10.24
2023-03-17T01:22:54.133Z,10.27
2023-03-17T01:23:54.141Z,10.27
2023-03-17T01:24:54.122Z,10.26
2023-03-17T01:25:54.123Z,10.28
2023-03-17T01:26:54.119Z,10.28
2023-03-17T01:27:54.129Z,10.42
2023-03-17T01:28:54.099Z,10.49
2023-03-17T01:29:54.103Z,10.60
2023-03-17T01:30:54.073Z,10.67
2023-03-17T01:31:54.170Z,10.61
2023-03-17T01:32:54.164Z,10.49
2023-03-17T01:33:54.055Z,10.52
2023-03-17T01:34:54.063Z,10.46
2023-03-17T01:35:54.107Z,10.43
2023-03-17T01:36:54.031Z,10.54
2023-03-17T01:37:54.024Z,10.58
2023-03-17T01:38:54.035Z,10.61
2023-03-17T01:39:54.008Z,10.61
2023-03-17T01:40:53.998Z,10.73
2023-03-17T01:41:53.987Z,10.70
2023-03-17T01:42:53.990Z,10.72
2023-03-17T01:43:53.979Z,10.67
2023-03-17T01:44:53.977Z,10.58
2023-03-17T01:45:53.999Z,10.55
2023-03-17T01:46:53.956Z,10.60
2023-03-17T01:47:53.944Z,10.58
2023-03-17T01:48:53.945Z,10.72
2023-03-17T01:49:53.937Z,10.70
2023-03-17T01:50:53.927Z,10.72
2023-03-17T01:51:53.928Z,10.65
2023-03-17T01:52:53.914Z,10.64
2023-03-17T01:53:53.904Z,10.61
2023-03-17T01:54:53.896Z,10.64
2023-03-17T01:55:53.889Z,10.65
2023-03-17T01:56:53.875Z,10.68
2023-03-17T01:57:53.872Z,10.73
2023-03-17T01:58:53.864Z,10.67
2023-03-17T01:59:53.862Z,10.58
2023-03-17T02:00:53.868Z,10.62
2023-03-17T02:01:53.845Z,10.61
2023-03-17T02:02:53.840Z,10.41
2023-03-17T02:03:53.864Z,10.41
2023-03-17T02:04:53.821Z,10.26
2023-03-17T02:05:53.817Z,10.17
2023-03-17T02:07:00.953Z,10.08
2023-03-17T02:07:53.799Z,10.09
2023-03-17T02:08:53.798Z,10.09
2023-03-17T02:09:53.778Z,10.03
2023-03-17T02:10:53.768Z,9.98
2023-03-17T02:11:53.767Z,9.94
2023-03-17T02:12:53.751Z,10.12
2023-03-17T02:13:53.756Z,10.27
2023-03-17T02:14:53.739Z,10.27
2023-03-17T02:15:53.746Z,10.26
2023-03-17T02:16:53.827Z,10.17
2023-03-17T02:17:53.716Z,10.05
2023-03-17T02:18:53.715Z,10.05
2023-03-17T02:19:53.714Z,10.12
2023-03-17T02:20:53.692Z,10.12
2023-03-17T02:21:53.696Z,10.17
2023-03-17T02:22:53.693Z,10.23
2023-03-17T02:23:53.677Z,10.21
2023-03-17T02:24:53.670Z,10.05
2023-03-17T02:25:53.663Z,10.05
2023-03-17T02:26:53.649Z,10.03
2023-03-17T02:27:53.647Z,10.05
2023-03-17T02:28:53.645Z,9.98
2023-03-17T02:29:53.628Z,10.02
2023-03-17T02:30:53.673Z,9.94
2023-03-17T02:31:53.624Z,9.96
2023-03-17T02:32:53.686Z,9.81
2023-03-17T02:33:53.599Z,9.81
2023-03-17T02:34:53.590Z,9.81
2023-03-17T02:35:53.612Z,9.85
2023-03-17T02:36:53.624Z,9.93
2023-03-17T02:37:53.573Z,9.81
2023-03-17T02:38:53.570Z,9.73
2023-03-17T02:39:53.552Z,9.66
2023-03-17T02:40:53.540Z,9.75
2023-03-17T02:41:53.535Z,9.54
2023-03-17T02:42:53.524Z,9.52
2023-03-17T02:43:53.520Z,9.54
2023-03-17T02:44:53.509Z,9.52
2023-03-17T02:45:53.603Z,9.36
2023-03-17T02:46:53.496Z,9.40
2023-03-17T02:47:53.491Z,9.41
2023-03-17T02:48:53.486Z,9.44
2023-03-17T02:49:53.489Z,9.42
2023-03-17T02:50:53.473Z,9.32
2023-03-17T02:51:53.460Z,9.47
2023-03-17T02:52:53.455Z,9.60
2023-03-17T02:53:53.454Z,9.59
2023-03-17T02:54:53.453Z,9.60
2023-03-17T02:55:53.423Z,9.66
2023-03-17T02:56:53.426Z,9.70
2023-03-17T02:57:53.409Z,9.72
2023-03-17T02:58:53.401Z,9.62
2023-03-17T02:59:53.396Z,9.65
2023-03-17T03:00:53.386Z,9.57
2023-03-17T03:01:53.381Z,9.51
2023-03-17T03:02:53.507Z,9.60
2023-03-17T03:03:53.367Z,9.41
2023-03-17T03:04:53.374Z,9.36
2023-03-17T03:05:53.343Z,9.36
2023-03-17T03:06:53.350Z,9.32
2023-03-17T03:07:53.341Z,9.41
2023-03-17T03:08:53.322Z,9.42
2023-03-17T03:09:53.312Z,9.34
2023-03-17T03:10:53.313Z,9.32
2023-03-17T03:11:53.302Z,9.33
2023-03-17T03:12:53.299Z,9.29
2023-03-17T03:13:53.288Z,9.33
2023-03-17T03:14:53.284Z,9.24
2023-03-17T03:15:53.346Z,9.12
2023-03-17T03:16:53.260Z,9.11
2023-03-17T03:17:53.249Z,8.99
2023-03-17T03:18:53.237Z,8.99
2023-03-17T03:19:53.257Z,8.96
2023-03-17T03:20:53.229Z,8.92
2023-03-17T03:21:53.224Z,8.96
2023-03-17T03:22:53.216Z,8.86
2023-03-17T03:23:53.223Z,8.74
2023-03-17T03:24:53.197Z,8.75
2023-03-17T03:25:53.197Z,8.65
2023-03-17T03:26:53.186Z,8.55
2023-03-17T03:27:53.169Z,8.59
2023-03-17T03:28:53.158Z,8.63
2023-03-17T03:29:53.157Z,8.67
2023-03-17T03:30:53.174Z,8.71
2023-03-17T03:31:53.143Z,8.80
2023-03-17T03:32:53.214Z,8.74
2023-03-17T03:33:53.124Z,8.75
2023-03-17T03:34:53.132Z,8.53
2023-03-17T03:35:53.155Z,8.46
2023-03-17T03:36:53.097Z,8.49
2023-03-17T03:37:53.098Z,8.53
2023-03-17T03:38:53.094Z,8.55
2023-03-17T03:39:53.072Z,8.52
2023-03-17T03:40:53.070Z,8.67
2023-03-17T03:41:53.060Z,8.62
2023-03-17T03:42:53.066Z,8.62
2023-03-17T03:43:53.038Z,8.55
2023-03-17T03:44:53.038Z,8.62
2023-03-17T03:45:53.027Z,8.52
2023-03-17T03:46:53.079Z,8.50
2023-03-17T03:47:53.006Z,8.55
2023-03-17T03:48:53.002Z,8.46
2023-03-17T03:49:52.986Z,8.42
2023-03-17T03:50:52.993Z,8.31
2023-03-17T03:51:52.991Z,8.42
2023-03-17T03:52:52.962Z,8.37
2023-03-17T03:53:52.974Z,8.46
2023-03-17T03:54:52.968Z,8.41
2023-03-17T03:55:52.938Z,8.46
2023-03-17T03:56:52.936Z,8.44
2023-03-17T03:57:52.923Z,8.34
2023-03-17T03:58:52.917Z,8.49
2023-03-17T03:59:52.899Z,8.46
2023-03-17T04:00:52.900Z,8.35
2023-03-17T04:01:52.888Z,8.44
2023-03-17T04:02:53.026Z,8.47
2023-03-17T04:03:52.882Z,8.31
2023-03-17T04:04:52.895Z,8.46
2023-03-17T04:05:52.863Z,8.37
2023-03-17T04:06:52.840Z,8.34
2023-03-17T04:07:52.847Z,8.34
2023-03-17T04:08:52.831Z,8.38
2023-03-17T04:09:52.829Z,8.47
2023-03-17T04:10:52.809Z,8.37
2023-03-17T04:11:52.807Z,8.42
2023-03-17T04:12:52.800Z,8.41
2023-03-17T04:13:52.815Z,8.52
2023-03-17T04:14:52.783Z,8.47
2023-03-17T04:15:52.817Z,8.42
2023-03-17T04:16:52.774Z,8.44
2023-03-17T04:17:52.770Z,8.47
2023-03-17T04:18:52.808Z,8.50
2023-03-17T04:19:52.735Z,8.34
2023-03-17T04:20:52.753Z,8.39
2023-03-17T04:21:54.666Z,8.46
2023-03-17T04:22:52.716Z,8.38
2023-03-17T04:23:52.703Z,8.49
2023-03-17T04:24:52.710Z,8.39
2023-03-17T04:25:52.689Z,8.24
2023-03-17T04:26:52.678Z,8.20
2023-03-17T04:27:52.671Z,8.19
2023-03-17T04:28:52.659Z,8.14
2023-03-17T04:29:52.653Z,8.09
2023-03-17T04:30:52.719Z,8.13
2023-03-17T04:31:52.681Z,8.21
2023-03-17T04:32:52.665Z,8.26
2023-03-17T04:33:52.614Z,8.14
2023-03-17T04:34:52.612Z,8.14
2023-03-17T04:35:52.684Z,8.14
2023-03-17T04:36:52.599Z,8.12
2023-03-17T04:37:52.583Z,8.05
2023-03-17T04:38:52.577Z,8.17
2023-03-17T04:39:52.572Z,8.13
2023-03-17T04:40:52.557Z,8.26
2023-03-17T04:41:52.570Z,8.21
2023-03-17T04:42:52.540Z,8.31
2023-03-17T04:43:52.529Z,8.24
2023-03-17T04:44:52.522Z,8.17
2023-03-17T04:45:52.664Z,8.02
2023-03-17T04:46:52.513Z,8.19
2023-03-17T04:47:52.501Z,8.26
2023-03-17T04:48:52.494Z,8.28
2023-03-17T04:49:52.481Z,8.20
2023-03-17T04:50:52.480Z,8.26
2023-03-17T04:51:52.460Z,8.21
2023-03-17T04:52:52.471Z,8.23
2023-03-17T04:53:52.449Z,8.26
2023-03-17T04:54:52.439Z,8.23
2023-03-17T04:55:52.439Z,8.24
2023-03-17T04:56:52.427Z,8.23
2023-03-17T04:57:52.438Z,8.16
2023-03-17T04:58:52.404Z,8.16
2023-03-17T04:59:52.448Z,8.14
2023-03-17T05:00:52.414Z,8.21
2023-03-17T05:01:52.442Z,8.24
2023-03-17T05:02:52.406Z,8.26
2023-03-17T05:03:52.371Z,8.28
2023-03-17T05:04:52.363Z,8.37
2023-03-17T05:05:52.345Z,8.34
2023-03-17T05:06:52.337Z,8.41
2023-03-17T05:07:52.335Z,8.35
2023-03-17T05:08:52.317Z,8.39
2023-03-17T05:09:52.309Z,8.50
2023-03-17T05:10:52.300Z,8.47
2023-03-17T05:11:52.291Z,8.47
2023-03-17T05:12:52.282Z,8.46
2023-03-17T05:13:52.276Z,8.52
2023-03-17T05:14:52.279Z,8.70
2023-03-17T05:15:52.263Z,8.60
2023-03-17T05:16:52.256Z,8.60
2023-03-17T05:17:52.376Z,8.56
2023-03-17T05:18:52.342Z,8.56
2023-03-17T05:19:52.235Z,8.70
2023-03-17T05:20:52.227Z,8.62
2023-03-17T05:21:52.215Z,8.75
2023-03-17T05:22:52.196Z,8.72
2023-03-17T05:23:54.850Z,8.85
2023-03-17T05:24:52.177Z,8.92
2023-03-17T05:25:52.169Z,9.03
2023-03-17T05:26:52.187Z,9.06
2023-03-17T05:27:52.162Z,8.99
2023-03-17T05:28:52.158Z,9.03
2023-03-17T05:29:52.135Z,9.01
2023-03-17T05:30:52.215Z,9.04
2023-03-17T05:31:52.127Z,9.08
2023-03-17T05:32:52.146Z,9.01
2023-03-17T05:33:52.136Z,8.98
2023-03-17T05:34:52.125Z,9.01
2023-03-17T05:35:52.123Z,9.01
2023-03-17T05:36:52.078Z,8.95
2023-03-17T05:37:52.069Z,8.78
2023-03-17T05:38:52.083Z,8.92
2023-03-17T05:39:52.089Z,8.83
2023-03-17T05:40:52.050Z,8.81
2023-03-17T05:41:52.082Z,8.83
2023-03-17T05:42:52.075Z,8.93
2023-03-17T05:43:52.057Z,8.98
2023-03-17T05:44:52.038Z,8.88
2023-03-17T05:45:52.105Z,8.98
2023-03-17T05:46:52.027Z,8.95
2023-03-17T05:47:52.023Z,8.96
2023-03-17T05:48:52.008Z,8.95
2023-03-17T05:49:52.022Z,9.06
2023-03-17T05:50:51.954Z,8.95
2023-03-17T05:51:51.947Z,8.98
2023-03-17T05:52:51.950Z,8.98
2023-03-17T05:53:51.938Z,8.96
2023-03-17T05:54:51.959Z,8.96
2023-03-17T05:55:51.929Z,8.98
2023-03-17T05:56:51.917Z,8.98
2023-03-17T05:57:51.905Z,8.93
2023-03-17T05:58:51.901Z,8.96
2023-03-17T05:59:51.893Z,8.95
2023-03-17T06:00:51.878Z,8.96
2023-03-17T06:01:51.879Z,9.03
2023-03-17T06:02:51.908Z,8.99
2023-03-17T06:03:51.884Z,8.99
2023-03-17T06:04:51.852Z,9.03
2023-03-17T06:05:51.831Z,8.99
2023-03-17T06:06:51.872Z,9.04
2023-03-17T06:07:56.217Z,8.96
2023-03-17T06:08:51.859Z,9.03
2023-03-17T06:09:53.696Z,8.96
2023-03-17T06:10:51.815Z,8.92
2023-03-17T06:11:51.804Z,8.99
2023-03-17T06:12:51.792Z,9.08
2023-03-17T06:13:51.768Z,9.15
2023-03-17T06:14:51.780Z,9.09
2023-03-17T06:15:51.801Z,9.06
2023-03-17T06:16:51.785Z,9.09
2023-03-17T06:17:51.752Z,9.12
2023-03-17T06:18:51.742Z,9.08
2023-03-17T06:19:51.755Z,9.11
2023-03-17T06:20:51.731Z,9.23
2023-03-17T06:21:51.708Z,9.09
2023-03-17T06:23:03.432Z,9.19
2023-03-17T06:23:51.688Z,9.14
2023-03-17T06:24:51.707Z,9.23
2023-03-17T06:25:51.679Z,9.30
2023-03-17T06:26:51.693Z,9.29
2023-03-17T06:27:51.661Z,9.33
2023-03-17T06:28:51.657Z,9.36
2023-03-17T06:29:51.669Z,9.42
2023-03-17T06:30:51.716Z,9.47
2023-03-17T06:31:51.624Z,9.51
2023-03-17T06:32:51.685Z,9.51
2023-03-17T06:33:51.615Z,9.52
2023-03-17T06:34:51.594Z,9.54
2023-03-17T06:35:51.678Z,9.52
2023-03-17T06:36:51.620Z,9.48
2023-03-17T06:37:51.591Z,9.52
2023-03-17T06:38:51.571Z,9.50
2023-03-17T06:39:51.555Z,9.57
2023-03-17T06:40:51.565Z,9.51
2023-03-17T06:41:51.624Z,9.50
2023-03-17T06:42:51.537Z,9.47
2023-03-17T06:43:51.574Z,9.54
2023-03-17T06:44:51.523Z,9.48
2023-03-17T06:45:51.543Z,9.51
2023-03-17T06:46:51.594Z,9.52
2023-03-17T06:47:51.649Z,9.51
2023-03-17T06:48:51.538Z,9.48
2023-03-17T06:49:51.509Z,9.54
2023-03-17T06:50:51.488Z,9.63
2023-03-17T06:51:51.493Z,9.65
2023-03-17T06:52:51.484Z,9.73
2023-03-17T06:53:51.445Z,9.70
2023-03-17T06:54:51.466Z,9.67
2023-03-17T06:55:51.485Z,9.54
2023-03-17T06:56:51.464Z,9.72
2023-03-17T06:57:51.560Z,9.73
2023-03-17T06:58:51.428Z,9.83
2023-03-17T06:59:51.418Z,9.85
2023-03-17T07:00:51.390Z,9.84
2023-03-17T07:01:51.450Z,9.84
2023-03-17T07:02:51.387Z,9.91
2023-03-17T07:03:51.426Z,9.94
2023-03-17T07:04:51.397Z,10.03
2023-03-17T07:05:51.378Z,10.08
2023-03-17T07:06:51.350Z,10.10
2023-03-17T07:07:51.342Z,10.23
2023-03-17T07:08:51.333Z,10.16
2023-03-17T07:09:51.325Z,10.28
2023-03-17T07:10:51.356Z,10.21
2023-03-17T07:11:51.318Z,10.31
2023-03-17T07:12:51.319Z,10.30
2023-03-17T07:13:51.298Z,10.26
2023-03-17T07:14:51.292Z,10.28
2023-03-17T07:15:53.312Z,10.24
2023-03-17T07:16:51.331Z,10.42
2023-03-17T07:17:51.299Z,10.38
2023-03-17T07:18:51.257Z,10.34
2023-03-17T07:19:51.255Z,10.39
2023-03-17T07:20:51.254Z,10.28
2023-03-17T07:21:51.244Z,10.36
2023-03-17T07:22:51.256Z,10.38
2023-03-17T07:23:51.221Z,10.38
2023-03-17T07:24:51.227Z,10.46
2023-03-17T07:25:51.234Z,10.55
2023-03-17T07:26:51.201Z,10.45
2023-03-17T07:27:51.204Z,10.61
2023-03-17T07:28:51.209Z,10.62
2023-03-17T07:29:51.182Z,10.64
2023-03-17T07:30:51.225Z,10.68
2023-03-17T07:31:51.205Z,10.60
2023-03-17T07:32:51.247Z,10.67
2023-03-17T07:33:51.172Z,10.68
2023-03-17T07:34:51.146Z,10.67
2023-03-17T07:35:51.197Z,10.78
2023-03-17T07:36:51.139Z,10.78
2023-03-17T07:37:51.114Z,10.76
2023-03-17T07:38:51.123Z,10.78
2023-03-17T07:39:51.149Z,10.83
2023-03-17T07:40:51.107Z,10.82
2023-03-17T07:41:51.107Z,10.86
2023-03-17T07:42:51.091Z,10.85
2023-03-17T07:43:51.092Z,10.95
2023-03-17T07:44:51.073Z,10.95
2023-03-17T07:45:51.134Z,11.05
2023-03-17T07:46:51.074Z,11.04
2023-03-17T07:47:51.066Z,11.08
2023-03-17T07:48:51.084Z,11.13
2023-03-17T07:49:51.050Z,11.15
2023-03-17T07:50:51.031Z,11.16
2023-03-17T07:51:51.024Z,11.19
2023-03-17T07:52:51.048Z,11.16
2023-03-17T07:53:51.007Z,11.25
2023-03-17T07:54:50.996Z,11.27
2023-03-17T07:55:51.003Z,11.30
2023-03-17T07:56:51.025Z,11.27
2023-03-17T07:57:51.039Z,11.23
2023-03-17T07:58:50.988Z,11.28
2023-03-17T07:59:50.997Z,11.34
2023-03-17T08:00:50.953Z,11.33
2023-03-17T08:01:51.029Z,11.45
2023-03-17T08:03:07.052Z,11.38
2023-03-17T08:03:50.981Z,11.38
2023-03-17T08:04:50.942Z,11.45
2023-03-17T08:05:50.921Z,11.45
2023-03-17T08:06:50.950Z,11.52
2023-03-17T08:07:50.922Z,11.41
2023-03-17T08:08:50.902Z,11.58
2023-03-17T08:09:50.897Z,11.66
2023-03-17T08:10:50.898Z,11.59
2023-03-17T08:11:50.942Z,11.67
2023-03-17T08:12:50.873Z,11.73
2023-03-17T08:13:50.872Z,11.82
2023-03-17T08:14:50.905Z,11.76
2023-03-17T08:15:50.903Z,11.80
2023-03-17T08:16:50.906Z,11.89
2023-03-17T08:17:50.885Z,11.88
2023-03-17T08:18:50.842Z,11.82
2023-03-17T08:19:50.896Z,11.82
2023-03-17T08:20:50.840Z,11.97
2023-03-17T08:21:50.901Z,11.95
2023-03-17T08:22:50.883Z,12.00
2023-03-17T08:23:50.878Z,11.97
2023-03-17T08:24:50.808Z,12.07
2023-03-17T08:25:50.803Z,12.04
2023-03-17T08:26:50.854Z,12.03
2023-03-17T08:27:50.827Z,12.10
2023-03-17T08:28:50.785Z,12.18
2023-03-17T08:29:50.784Z,12.17
2023-03-17T08:30:50.931Z,12.29
2023-03-17T08:31:50.812Z,12.30
2023-03-17T08:32:50.810Z,12.30
2023-03-17T08:33:50.754Z,12.38
2023-03-17T08:34:50.764Z,12.53
2023-03-17T08:35:50.830Z,12.47
2023-03-17T08:36:50.724Z,12.53
2023-03-17T08:37:50.721Z,12.55
2023-03-17T08:38:50.750Z,12.61
2023-03-17T08:39:50.742Z,12.63
2023-03-17T08:40:50.763Z,12.65
2023-03-17T08:41:50.722Z,12.76
2023-03-17T08:42:50.691Z,12.72
2023-03-17T08:43:50.724Z,12.76
2023-03-17T08:44:50.676Z,12.77
2023-03-17T08:45:50.693Z,12.77
2023-03-17T08:46:50.665Z,12.87
2023-03-17T08:47:50.685Z,12.98
2023-03-17T08:48:50.696Z,12.87
2023-03-17T08:49:50.686Z,12.91
2023-03-17T08:50:50.649Z,12.99
2023-03-17T08:51:50.654Z,13.02
2023-03-17T08:52:50.662Z,13.06
2023-03-17T08:53:50.626Z,13.09
2023-03-17T08:54:50.655Z,13.16
2023-03-17T08:55:50.621Z,13.13
2023-03-17T08:56:50.649Z,13.20
2023-03-17T08:57:50.620Z,13.35
2023-03-17T08:58:50.592Z,13.46
2023-03-17T08:59:50.639Z,13.46
2023-03-17T09:00:50.577Z,13.42
2023-03-17T09:01:50.778Z,13.43
2023-03-17T09:02:50.652Z,13.46
2023-03-17T09:03:50.565Z,13.42
2023-03-17T09:04:50.575Z,13.40
2023-03-17T09:05:50.589Z,13.49
2023-03-17T09:07:02.695Z,13.49
2023-03-17T09:07:50.621Z,13.75
2023-03-17T09:08:50.526Z,13.63
2023-03-17T09:09:50.571Z,13.67
2023-03-17T09:10:50.531Z,13.76
2023-03-17T09:11:50.547Z,13.72
2023-03-17T09:12:50.565Z,13.85
2023-03-17T09:13:50.499Z,13.91
2023-03-17T09:14:50.524Z,13.96
2023-03-17T09:15:52.029Z,14.05
2023-03-17T09:16:50.548Z,13.91
2023-03-17T09:17:50.505Z,13.96
2023-03-17T09:18:50.478Z,14.19
2023-03-17T09:19:50.482Z,14.21
2023-03-17T09:20:50.526Z,14.23
2023-03-17T09:21:50.453Z,14.18
2023-03-17T09:22:50.456Z,14.31
2023-03-17T09:23:50.497Z,14.21
2023-03-17T09:24:50.462Z,14.18
2023-03-17T09:25:50.475Z,14.21
2023-03-17T09:26:50.424Z,14.19
2023-03-17T09:27:50.457Z,14.26
2023-03-17T09:28:50.473Z,14.33
2023-03-17T09:29:50.407Z,14.22
2023-03-17T09:30:50.492Z,14.15
2023-03-17T09:31:50.399Z,14.09
2023-03-17T09:32:50.428Z,14.21
2023-03-17T09:33:50.463Z,14.05
2023-03-17T09:34:51.655Z,14.15
2023-03-17T09:35:50.424Z,14.15
2023-03-17T09:36:50.377Z,14.11
2023-03-17T09:37:50.444Z,14.08
2023-03-17T09:38:50.391Z,14.04
2023-03-17T09:39:50.353Z,14.01
2023-03-17T09:40:50.354Z,14.09
2023-03-17T09:41:50.402Z,14.22
2023-03-17T09:42:50.400Z,14.11
2023-03-17T09:43:50.336Z,14.22
2023-03-17T09:44:50.356Z,14.38
2023-03-17T09:45:50.368Z,14.45
2023-03-17T09:46:50.384Z,14.58
2023-03-17T09:47:50.335Z,14.52
2023-03-17T09:48:50.325Z,14.67
2023-03-17T09:49:50.321Z,14.70
2023-03-17T09:50:50.305Z,14.97
2023-03-17T09:51:50.287Z,15.12
2023-03-17T09:52:51.444Z,15.10
2023-03-17T09:53:50.360Z,15.35
2023-03-17T09:54:50.282Z,15.33
2023-03-17T09:55:50.300Z,15.40
2023-03-17T09:56:50.295Z,15.56
2023-03-17T09:57:50.271Z,15.60
2023-03-17T09:58:51.351Z,15.77
2023-03-17T09:59:50.261Z,15.83
2023-03-17T10:00:50.265Z,15.95
2023-03-17T10:01:50.404Z,15.98
2023-03-17T10:02:50.260Z,16.00
2023-03-17T10:03:50.260Z,16.13
2023-03-17T10:04:50.393Z,16.10
2023-03-17T10:05:50.271Z,16.14
2023-03-17T10:06:50.247Z,15.99
2023-03-17T10:07:50.246Z,15.84
2023-03-17T10:08:50.291Z,15.72
2023-03-17T10:09:50.276Z,15.84
2023-03-17T10:10:50.223Z,15.69
2023-03-17T10:11:50.262Z,15.85
2023-03-17T10:12:50.231Z,16.03
2023-03-17T10:13:50.290Z,16.10
2023-03-17T10:14:51.336Z,16.21
2023-03-17T10:15:50.262Z,16.39
2023-03-17T10:16:50.210Z,16.57
2023-03-17T10:17:50.209Z,16.33
2023-03-17T10:18:50.223Z,16.54
2023-03-17T10:19:50.211Z,16.65
2023-03-17T10:20:51.661Z,16.73
2023-03-17T10:21:50.206Z,16.73
2023-03-17T10:22:50.200Z,16.95
2023-03-17T10:23:50.198Z,17.17
2023-03-17T10:24:50.212Z,17.10
2023-03-17T10:25:50.213Z,17.07
2023-03-17T10:26:50.237Z,17.04
2023-03-17T10:27:50.191Z,17.06
2023-03-17T10:28:50.179Z,17.12
2023-03-17T10:29:50.229Z,17.31
2023-03-17T10:30:50.219Z,17.34
2023-03-17T10:31:50.305Z,17.41
2023-03-17T10:32:50.279Z,17.27
2023-03-17T10:33:50.238Z,17.27
2023-03-17T10:34:50.222Z,17.20
2023-03-17T10:35:50.191Z,17.30
2023-03-17T10:36:50.204Z,17.43
2023-03-17T10:37:50.190Z,17.37
2023-03-17T10:38:50.203Z,17.32
2023-03-17T10:39:50.206Z,17.39
2023-03-17T10:40:50.183Z,17.62
2023-03-17T10:41:50.174Z,17.72
2023-03-17T10:42:50.175Z,17.37
2023-03-17T10:43:50.177Z,17.46
2023-03-17T10:44:50.229Z,17.56
2023-03-17T10:45:50.163Z,17.47
2023-03-17T10:46:50.219Z,17.65
2023-03-17T10:47:50.204Z,17.49
2023-03-17T10:48:50.167Z,17.35
2023-03-17T10:49:50.170Z,17.49
2023-03-17T10:50:51.643Z,17.35
2023-03-17T10:51:50.163Z,17.31
2023-03-17T10:52:50.189Z,17.37
2023-03-17T10:53:50.176Z,16.95
2023-03-17T10:54:50.187Z,16.76
2023-03-17T10:55:50.164Z,16.84
2023-03-17T10:56:50.192Z,16.91
2023-03-17T10:57:50.192Z,17.31
2023-03-17T10:58:50.187Z,17.65
2023-03-17T10:59:50.192Z,17.59
2023-03-17T11:00:50.158Z,17.63
2023-03-17T11:01:50.155Z,17.19
2023-03-17T11:02:50.203Z,17.09
2023-03-17T11:03:50.191Z,17.04
2023-03-17T11:04:50.180Z,17.10
2023-03-17T11:05:50.147Z,16.73
2023-03-17T11:06:50.185Z,17.01
2023-03-17T11:07:50.170Z,17.32
2023-03-17T11:08:50.161Z,17.35
2023-03-17T11:09:50.142Z,17.27
2023-03-17T11:10:50.182Z,17.34
2023-03-17T11:11:50.168Z,17.32
2023-03-17T11:12:50.149Z,17.37
2023-03-17T11:13:50.153Z,17.31
2023-03-17T11:14:50.136Z,17.32
2023-03-17T11:15:50.145Z,17.34
2023-03-17T11:16:50.176Z,17.22
2023-03-17T11:17:50.131Z,17.25
2023-03-17T11:18:50.123Z,17.17
2023-03-17T11:19:50.130Z,17.25
2023-03-17T11:20:50.132Z,17.28
2023-03-17T11:21:50.178Z,17.32
2023-03-17T11:22:50.134Z,17.27
2023-03-17T11:23:50.132Z,17.16
2023-03-17T11:24:50.171Z,17.17
2023-03-17T11:25:50.156Z,17.06
2023-03-17T11:26:50.124Z,17.10
2023-03-17T11:27:50.172Z,17.10
2023-03-17T11:28:50.118Z,17.09
2023-03-17T11:29:50.105Z,17.04
2023-03-17T11:30:50.165Z,16.99
2023-03-17T11:31:50.153Z,17.04
2023-03-17T11:32:50.173Z,16.91
2023-03-17T11:33:50.166Z,16.74
2023-03-17T11:34:50.110Z,16.29
2023-03-17T11:35:50.203Z,16.40
2023-03-17T11:36:50.101Z,16.69
2023-03-17T11:37:50.126Z,16.88
2023-03-17T11:38:50.123Z,17.13
2023-03-17T11:39:50.134Z,16.83
2023-03-17T11:40:50.125Z,16.91
2023-03-17T11:41:50.079Z,16.88
2023-03-17T11:42:50.155Z,16.95
2023-03-17T11:43:50.078Z,17.10
2023-03-17T11:44:50.095Z,16.80
2023-03-17T11:45:50.090Z,16.90
2023-03-17T11:46:50.097Z,16.83
2023-03-17T11:47:50.069Z,16.97
2023-03-17T11:48:50.092Z,16.91
2023-03-17T11:49:50.060Z,17.07
2023-03-17T11:50:50.073Z,17.19
2023-03-17T11:51:50.100Z,17.22
2023-03-17T11:52:50.070Z,17.01
2023-03-17T11:53:50.052Z,17.17
2023-03-17T11:54:50.066Z,17.19
2023-03-17T11:55:50.144Z,17.28
2023-03-17T11:56:50.046Z,17.12
2023-03-17T11:57:50.032Z,17.14
2023-03-17T11:58:50.028Z,17.09
2023-03-17T11:59:50.029Z,17.09
2023-03-17T12:00:50.094Z,17.19
2023-03-17T12:01:50.021Z,17.01
2023-03-17T12:02:50.036Z,16.87
2023-03-17T12:03:50.147Z,16.74
2023-03-17T12:04:50.097Z,16.72
2023-03-17T12:05:50.030Z,16.83
2023-03-17T12:06:50.051Z,16.95
2023-03-17T12:07:50.008Z,16.97
2023-03-17T12:08:50.024Z,16.82
2023-03-17T12:09:49.991Z,16.83
2023-03-17T12:10:50.046Z,16.70
2023-03-17T12:11:50.012Z,16.70
2023-03-17T12:12:50.008Z,16.65
2023-03-17T12:13:49.992Z,16.69
2023-03-17T12:14:50.054Z,16.70
2023-03-17T12:15:50.127Z,16.62
2023-03-17T12:16:49.962Z,16.61
2023-03-17T12:17:49.991Z,16.67
2023-03-17T12:18:50.021Z,16.44
2023-03-17T12:19:50.023Z,16.49
2023-03-17T12:20:49.995Z,16.52
2023-03-17T12:21:50.013Z,16.52
2023-03-17T12:22:49.949Z,16.52
2023-03-17T12:23:49.978Z,16.42
2023-03-17T12:24:49.954Z,16.55
2023-03-17T12:25:49.935Z,16.55
2023-03-17T12:26:49.924Z,16.54
2023-03-17T12:27:49.963Z,16.54
2023-03-17T12:28:49.969Z,16.67
2023-03-17T12:29:49.988Z,16.69
2023-03-17T12:30:50.031Z,16.69
2023-03-17T12:31:49.917Z,16.74
2023-03-17T12:32:49.933Z,16.87
2023-03-17T12:33:49.899Z,16.79
2023-03-17T12:34:49.942Z,16.87
2023-03-17T12:35:49.914Z,16.82
2023-03-17T12:36:49.958Z,16.73
2023-03-17T12:37:49.881Z,16.77
2023-03-17T12:38:49.913Z,16.73
2023-03-17T12:39:49.915Z,16.80
2023-03-17T12:40:49.954Z,16.79
2023-03-17T12:41:49.930Z,16.83
2023-03-17T12:42:49.916Z,16.83
2023-03-17T12:43:49.897Z,16.87
2023-03-17T12:44:49.886Z,16.82
2023-03-17T12:45:49.876Z,16.74
2023-03-17T12:46:49.976Z,16.62
2023-03-17T12:47:49.892Z,16.65
2023-03-17T12:48:49.867Z,16.62
2023-03-17T12:49:49.833Z,16.73
2023-03-17T12:50:49.855Z,16.79
2023-03-17T12:51:49.891Z,16.90
2023-03-17T12:52:49.814Z,16.88
2023-03-17T12:53:49.855Z,17.09
2023-03-17T12:54:49.816Z,17.07
2023-03-17T12:55:49.802Z,16.90
2023-03-17T12:56:49.837Z,17.01
2023-03-17T12:57:49.812Z,17.01
2023-03-17T12:58:49.829Z,17.12
2023-03-17T12:59:49.833Z,17.22
2023-03-17T13:00:49.786Z,17.38
2023-03-17T13:01:49.861Z,17.30